Time;durP1;ratioP1;P1;durP2;ratioP2;P2;SDS_P1;SDS_P2;PMS_P1;PMS_P2;Temp;Humidity;BMP_temperature;BMP_pressure;BME280_temperature;BME280_humidity;BME280_pressure;Samples;Min_cycle;Max_cycle;Signal;HPM_P1;HPM_P2
2023/01/31 00:00:26;;;;;;;;;;;;;;;12.00;66.38;102095.16;1265017;23;626;-72
2023/01/31 00:01:17;;;;;;;;;;;;;;;12.02;67.30;102095.91;1264706;23;622;-73
2023/01/31 00:02:07;;;;;;;;;;;;;;;12.01;66.87;102100.38;1259419;23;638;-73
2023/01/31 00:02:58;;;;;;;;;;;;;;;12.02;66.62;102099.44;1261049;23;676;-72
2023/01/31 00:03:48;;;;;;;;;;;;;;;11.99;66.72;102096.94;1265960;23;747;-73
2023/01/31 00:04:38;;;;;;;;;;;;;;;12.00;67.32;102100.47;1265020;23;638;-72
2023/01/31 00:05:29;;;;;;;;;;;;;;;12.01;66.43;102096.84;1264779;23;653;-73
2023/01/31 00:06:19;;;;;;;;;;;;;;;11.98;67.01;102097.03;1265776;23;641;-73
2023/01/31 00:07:10;;;;;;;;;;;;;;;11.97;66.53;102097.97;1265283;23;614;-73
2023/01/31 00:08:00;;;;;;;;;;;;;;;11.94;66.61;102101.66;1264794;23;1935;-73
2023/01/31 00:08:51;;;;;;;;;;;;;;;11.94;66.81;102098.97;1265220;23;665;-73
2023/01/31 00:09:41;;;;;;;;;;;;;;;11.96;67.34;102086.41;1259361;23;606;-73
2023/01/31 00:10:31;;;;;;;;;;;;;;;11.96;67.50;102089.09;1260827;23;664;-73
2023/01/31 00:11:22;;;;;;;;;;;;;;;11.95;67.06;102089.16;1265721;23;626;-73
2023/01/31 00:12:12;;;;;;;;;;;;;;;11.94;66.84;102095.44;1264927;23;614;-74
2023/01/31 00:13:03;;;;;;;;;;;;;;;11.93;66.59;102094.56;1265149;23;1071;-74
2023/01/31 00:13:53;;;;;;;;;;;;;;;11.95;66.91;102084.69;1264957;23;634;-74
2023/01/31 00:14:44;;;;;;;;;;;;;;;11.98;66.99;102089.88;1265057;23;637;-74
2023/01/31 00:15:34;;;;;;;;;;;;;;;11.95;66.70;102084.69;1265737;23;646;-73
2023/01/31 00:16:24;;;;;;;;;;;;;;;11.95;66.91;102081.16;1265021;23;763;-73
2023/01/31 00:17:15;;;;;;;;;;;;;;;11.95;67.34;102076.66;1265594;23;653;-73
2023/01/31 00:18:05;;;;;;;;;;;;;;;11.96;66.56;102075.72;1264893;23;618;-74
2023/01/31 00:18:56;;;;;;;;;;;;;;;11.96;66.72;102078.41;1265897;23;618;-74
2023/01/31 00:19:46;;;;;;;;;;;;;;;11.95;66.50;102074.00;1265789;23;637;-73
2023/01/31 00:20:37;;;;;;;;;;;;;;;11.96;67.43;102073.06;1265975;23;602;-73
2023/01/31 00:21:27;;;;;;;;;;;;;;;11.98;66.50;102070.31;1264784;23;634;-73
2023/01/31 00:22:17;;;;;;;;;;;;;;;11.95;66.99;102068.66;1265064;23;696;-73
2023/01/31 00:23:08;;;;;;;;;;;;;;;11.94;66.55;102063.38;1265467;23;614;-73
2023/01/31 00:23:58;;;;;;;;;;;;;;;11.93;66.59;102062.53;1264979;23;642;-72
2023/01/31 00:24:49;;;;;;;;;;;;;;;11.95;66.61;102043.75;1264645;23;650;-73
2023/01/31 00:25:39;;;;;;;;;;;;;;;11.95;67.27;102049.09;1264871;23;629;-73
2023/01/31 00:26:30;;;;;;;;;;;;;;;11.95;67.52;102049.94;1265315;23;614;-73
2023/01/31 00:27:20;;;;;;;;;;;;;;;11.96;67.22;102050.81;1265541;23;654;-73
2023/01/31 00:28:11;;;;;;;;;;;;;;;11.95;66.68;102051.75;1264973;23;1913;-73
2023/01/31 00:29:01;;;;;;;;;;;;;;;11.96;66.64;102054.34;1264688;23;615;-73
2023/01/31 00:29:51;;;;;;;;;;;;;;;11.94;67.17;102053.56;1265004;23;736;-72
2023/01/31 00:30:42;;;;;;;;;;;;;;;11.94;67.43;102042.88;1265532;23;761;-74
2023/01/31 00:31:32;;;;;;;;;;;;;;;11.91;67.49;102036.81;1265000;23;638;-74
2023/01/31 00:32:25;;;;;;;;;;;;;;;11.90;67.55;102038.63;1265188;23;673;-74
2023/01/31 00:33:15;;;;;;;;;;;;;;;11.90;67.19;102035.09;1258655;23;669;-73
2023/01/31 00:34:06;;;;;;;;;;;;;;;11.87;67.09;102036.13;1261328;23;688;-73
2023/01/31 00:34:56;;;;;;;;;;;;;;;11.87;66.85;102028.09;1265129;23;586;-73
2023/01/31 00:35:47;;;;;;;;;;;;;;;11.87;66.71;102022.75;1259413;23;638;-73
2023/01/31 00:36:37;;;;;;;;;;;;;;;11.88;67.68;102027.16;1260985;23;613;-73
2023/01/31 00:37:28;;;;;;;;;;;;;;;11.92;67.02;102022.53;1266037;23;662;-74
2023/01/31 00:38:18;;;;;;;;;;;;;;;11.90;67.10;102011.91;1265711;23;618;-74
2023/01/31 00:39:08;;;;;;;;;;;;;;;11.92;66.98;102026.06;1264948;23;626;-75
2023/01/31 00:39:59;;;;;;;;;;;;;;;11.93;66.60;102018.91;1265137;23;626;-73
2023/01/31 00:40:49;;;;;;;;;;;;;;;11.93;66.80;102019.78;1264961;23;614;-73
2023/01/31 00:41:40;;;;;;;;;;;;;;;11.92;66.67;102018.06;1265196;23;626;-73
2023/01/31 00:42:30;;;;;;;;;;;;;;;11.88;67.47;102021.81;1265622;23;603;-73
2023/01/31 00:43:20;;;;;;;;;;;;;;;11.87;67.62;102019.22;1264942;23;696;-73
2023/01/31 00:44:11;;;;;;;;;;;;;;;11.88;67.15;102020.94;1266333;23;676;-73
2023/01/31 00:45:01;;;;;;;;;;;;;;;11.87;66.80;102016.56;1264508;23;689;-73
2023/01/31 00:45:52;;;;;;;;;;;;;;;11.87;67.06;102012.06;1258866;23;688;-73
2023/01/31 00:46:42;;;;;;;;;;;;;;;11.89;67.66;102010.19;1260352;23;634;-73
2023/01/31 00:47:33;;;;;;;;;;;;;;;11.92;67.39;102014.50;1265341;23;653;-74
2023/01/31 00:48:23;;;;;;;;;;;;;;;11.90;66.92;102014.59;1264886;23;1881;-74
2023/01/31 00:49:13;;;;;;;;;;;;;;;11.89;67.26;102012.88;1264215;23;653;-74
2023/01/31 00:50:04;;;;;;;;;;;;;;;11.90;67.26;102001.25;1265246;23;594;-74
2023/01/31 00:50:54;;;;;;;;;;;;;;;11.90;66.65;102006.59;1265054;23;605;-74
2023/01/31 00:51:45;;;;;;;;;;;;;;;11.88;66.79;101997.78;1264534;23;654;-74
2023/01/31 00:52:35;;;;;;;;;;;;;;;11.90;66.75;102003.91;1264918;23;598;-73
2023/01/31 00:53:25;;;;;;;;;;;;;;;11.90;66.78;102008.38;1264216;23;676;-74
2023/01/31 00:54:16;;;;;;;;;;;;;;;11.89;67.65;101996.84;1264847;23;665;-73
2023/01/31 00:55:06;;;;;;;;;;;;;;;11.88;66.60;101997.78;1264238;23;594;-73
2023/01/31 00:55:57;;;;;;;;;;;;;;;11.87;66.92;102004.06;1265343;23;609;-71
2023/01/31 00:56:48;;;;;;;;;;;;;;;11.89;66.81;101999.50;1264520;23;708;-74
2023/01/31 00:57:38;;;;;;;;;;;;;;;11.88;67.58;101997.78;1264102;23;613;-74
2023/01/31 00:58:29;;;;;;;;;;;;;;;11.87;67.30;101997.84;1264399;23;668;-74
2023/01/31 00:59:19;;;;;;;;;;;;;;;11.89;67.29;101996.84;1264947;23;641;-74
2023/01/31 01:00:10;;;;;;;;;;;;;;;11.89;67.15;102001.31;1264341;23;565;-73
2023/01/31 01:01:00;;;;;;;;;;;;;;;11.88;66.66;101999.59;1264021;23;693;-73
2023/01/31 01:01:50;;;;;;;;;;;;;;;11.87;67.14;101997.84;1264225;23;638;-73
2023/01/31 01:02:41;;;;;;;;;;;;;;;11.86;67.50;101998.78;1264691;23;669;-74
2023/01/31 01:03:31;;;;;;;;;;;;;;;11.85;67.69;101991.72;1264141;23;653;-73
2023/01/31 01:04:22;;;;;;;;;;;;;;;11.86;67.71;101994.31;1264462;23;614;-73
2023/01/31 01:05:12;;;;;;;;;;;;;;;11.85;67.01;101997.94;1264789;23;621;-73
2023/01/31 01:06:03;;;;;;;;;;;;;;;11.82;67.00;101998.13;1264907;23;609;-71
2023/01/31 01:06:53;;;;;;;;;;;;;;;11.86;66.83;101997.00;1263657;23;637;-74
2023/01/31 01:07:43;;;;;;;;;;;;;;;11.83;67.78;101998.00;1258619;23;629;-73
2023/01/31 01:08:34;;;;;;;;;;;;;;;11.83;67.72;101999.81;1259680;23;684;-74
2023/01/31 01:09:24;;;;;;;;;;;;;;;11.83;66.94;101994.47;1263976;23;601;-74
2023/01/31 01:10:15;;;;;;;;;;;;;;;11.82;67.87;101998.94;1264314;23;614;-73
2023/01/31 01:11:05;;;;;;;;;;;;;;;11.83;67.55;101997.13;1263680;23;611;-73
2023/01/31 01:11:56;;;;;;;;;;;;;;;11.85;66.84;101995.25;1263939;23;645;-72
2023/01/31 01:12:46;;;;;;;;;;;;;;;11.86;66.86;101994.31;1263933;23;657;-73
2023/01/31 01:13:36;;;;;;;;;;;;;;;11.85;67.42;101984.56;1264790;23;602;-73
2023/01/31 01:14:27;;;;;;;;;;;;;;;11.83;66.94;101989.13;1264329;23;614;-73
2023/01/31 01:15:17;;;;;;;;;;;;;;;11.83;67.02;101986.47;1263875;23;658;-72
2023/01/31 01:16:08;;;;;;;;;;;;;;;11.82;66.81;101995.44;1264248;23;638;-73
2023/01/31 01:16:58;;;;;;;;;;;;;;;11.82;67.55;101990.94;1264678;23;629;-72
2023/01/31 01:17:49;;;;;;;;;;;;;;;11.81;67.02;101989.25;1264116;23;645;-73
2023/01/31 01:18:40;;;;;;;;;;;;;;;11.79;66.99;101976.91;1264309;23;634;-73
2023/01/31 01:19:30;;;;;;;;;;;;;;;11.80;67.15;101989.31;1264027;23;606;-73
2023/01/31 01:20:21;;;;;;;;;;;;;;;11.79;67.84;101991.13;1263935;23;661;-72
2023/01/31 01:21:11;;;;;;;;;;;;;;;11.77;66.99;101995.69;1264795;23;665;-73
2023/01/31 01:22:03;;;;;;;;;;;;;;;11.78;67.33;101994.72;1264347;23;653;-72
2023/01/31 01:22:54;;;;;;;;;;;;;;;11.78;66.84;101988.53;1264380;23;692;-72
2023/01/31 01:23:46;;;;;;;;;;;;;;;11.79;66.99;101995.59;1264665;23;633;-72
2023/01/31 01:24:36;;;;;;;;;;;;;;;11.79;67.19;101996.47;1263727;23;614;-73
2023/01/31 01:25:26;;;;;;;;;;;;;;;11.77;67.86;101993.00;1264148;23;641;-72
2023/01/31 01:26:17;;;;;;;;;;;;;;;11.77;67.86;101997.47;1264202;23;606;-73
2023/01/31 01:27:07;;;;;;;;;;;;;;;11.79;67.97;101995.59;1264981;23;721;-73
2023/01/31 01:27:58;;;;;;;;;;;;;;;11.77;67.78;101992.13;1264212;23;650;-72
2023/01/31 01:28:48;;;;;;;;;;;;;;;11.79;67.10;101991.13;1264023;23;599;-73
2023/01/31 01:29:38;;;;;;;;;;;;;;;11.77;67.07;101987.66;1264042;23;630;-72
2023/01/31 01:30:30;;;;;;;;;;;;;;;11.78;67.38;101984.06;1264471;23;669;-72
2023/01/31 01:31:20;;;;;;;;;;;;;;;11.80;67.98;101997.31;1264149;23;610;-73
2023/01/31 01:32:11;;;;;;;;;;;;;;;11.79;67.81;102001.81;1264239;23;618;-72
2023/01/31 01:33:01;;;;;;;;;;;;;;;11.78;67.31;101999.22;1264830;23;653;-72
2023/01/31 01:33:52;;;;;;;;;;;;;;;11.77;67.35;101998.34;1264280;23;621;-73
2023/01/31 01:34:42;;;;;;;;;;;;;;;11.77;67.71;102000.16;1264831;23;605;-73
2023/01/31 01:35:33;;;;;;;;;;;;;;;11.78;67.67;102005.41;1264063;23;753;-72
2023/01/31 01:36:23;;;;;;;;;;;;;;;11.80;67.71;102000.00;1264684;23;661;-72
2023/01/31 01:37:18;;;;;;;;;;;;;;;11.81;67.29;101997.25;1264144;23;646;-72
2023/01/31 01:38:09;;;;;;;;;;;;;;;11.81;67.67;101999.06;1264304;23;851;-72
2023/01/31 01:39:00;;;;;;;;;;;;;;;11.78;67.99;101996.53;1264298;23;672;-72
2023/01/31 01:39:51;;;;;;;;;;;;;;;11.80;67.05;101997.31;1263913;23;622;-73
2023/01/31 01:40:41;;;;;;;;;;;;;;;11.78;67.88;101996.53;1264034;23;614;-73
2023/01/31 01:41:35;;;;;;;;;;;;;;;11.77;67.76;102000.16;1264279;23;653;-73
2023/01/31 01:42:25;;;;;;;;;;;;;;;11.76;67.96;102001.09;1256024;23;630;-72
2023/01/31 01:43:15;;;;;;;;;;;;;;;11.78;67.93;101999.22;1260126;23;795;-73
2023/01/31 01:44:06;;;;;;;;;;;;;;;11.78;67.19;102004.56;1264356;23;590;-73
2023/01/31 01:44:56;;;;;;;;;;;;;;;11.76;67.23;102001.97;1263962;23;610;-74
2023/01/31 01:45:47;;;;;;;;;;;;;;;11.77;67.22;102001.00;1264413;23;634;-74
2023/01/31 01:46:37;;;;;;;;;;;;;;;11.76;67.35;102006.44;1264263;23;715;-73
2023/01/31 01:47:28;;;;;;;;;;;;;;;11.76;67.72;102001.09;1264960;23;672;-73
2023/01/31 01:48:18;;;;;;;;;;;;;;;11.74;68.05;102000.28;1265609;23;1885;-74
2023/01/31 01:49:08;;;;;;;;;;;;;;;11.73;67.34;102003.88;1264161;23;649;-74
2023/01/31 01:49:59;;;;;;;;;;;;;;;11.77;67.22;102005.50;1264404;23;633;-74
2023/01/31 01:50:49;;;;;;;;;;;;;;;11.77;67.94;102016.19;1264821;23;737;-74
2023/01/31 01:51:40;;;;;;;;;;;;;;;11.75;67.15;102016.22;1265108;23;847;-74
2023/01/31 01:52:30;;;;;;;;;;;;;;;11.75;67.94;102010.00;1264761;23;617;-74
2023/01/31 01:53:21;;;;;;;;;;;;;;;11.75;67.63;102015.34;1264157;23;755;-73
2023/01/31 01:54:11;;;;;;;;;;;;;;;11.74;68.17;102014.50;1264754;23;653;-73
2023/01/31 01:55:02;;;;;;;;;;;;;;;11.72;68.02;102019.03;1264803;23;626;-73
2023/01/31 01:55:52;;;;;;;;;;;;;;;11.71;67.30;102019.13;1264357;23;622;-73
2023/01/31 01:56:42;;;;;;;;;;;;;;;11.71;68.18;102011.09;1263565;23;637;-73
2023/01/31 01:57:33;;;;;;;;;;;;;;;11.72;68.10;102007.50;1264280;23;611;-73
2023/01/31 01:58:24;;;;;;;;;;;;;;;11.72;68.17;102008.34;1263647;23;662;-73
2023/01/31 01:59:14;;;;;;;;;;;;;;;11.74;67.80;102011.81;1264457;23;629;-73
2023/01/31 02:00:05;;;;;;;;;;;;;;;11.74;67.57;102008.28;1264884;23;642;-72
2023/01/31 02:00:55;;;;;;;;;;;;;;;11.73;67.41;102011.91;1263883;23;609;-72
2023/01/31 02:01:45;;;;;;;;;;;;;;;11.74;67.75;102010.94;1264861;23;610;-72
2023/01/31 02:02:36;;;;;;;;;;;;;;;11.73;67.69;102007.41;1264531;23;634;-72
2023/01/31 02:03:26;;;;;;;;;;;;;;;11.73;68.00;101996.72;1264256;23;684;-72
2023/01/31 02:04:17;;;;;;;;;;;;;;;11.75;67.80;102002.88;1265749;23;681;-72
2023/01/31 02:05:07;;;;;;;;;;;;;;;11.75;67.62;102004.66;1265463;23;609;-72
2023/01/31 02:05:58;;;;;;;;;;;;;;;11.75;67.11;102004.66;1264920;23;653;-72
2023/01/31 02:06:48;;;;;;;;;;;;;;;11.76;67.09;102006.44;1265527;23;665;-73
2023/01/31 02:07:39;;;;;;;;;;;;;;;11.75;67.56;102002.88;1264610;23;575;-73
2023/01/31 02:08:29;;;;;;;;;;;;;;;11.76;67.39;102011.78;1264939;23;1932;-72
2023/01/31 02:09:19;;;;;;;;;;;;;;;11.77;68.03;101997.47;1265503;23;694;-73
2023/01/31 02:10:11;;;;;;;;;;;;;;;11.75;67.51;102005.53;1264952;23;638;-73
2023/01/31 02:11:02;;;;;;;;;;;;;;;11.74;67.73;102003.81;1264824;23;669;-72
2023/01/31 02:11:52;;;;;;;;;;;;;;;11.73;67.59;102004.75;1265644;23;610;-72
2023/01/31 02:12:43;;;;;;;;;;;;;;;11.74;67.41;102008.28;1264952;23;641;-73
2023/01/31 02:13:33;;;;;;;;;;;;;;;11.70;68.06;102002.22;1265392;23;661;-73
2023/01/31 02:14:23;;;;;;;;;;;;;;;11.73;67.64;102011.91;1264695;23;654;-73
2023/01/31 02:15:14;;;;;;;;;;;;;;;11.71;68.09;102003.09;1264270;23;1069;-73
2023/01/31 02:16:04;;;;;;;;;;;;;;;11.71;67.98;102006.63;1265554;23;602;-73
2023/01/31 02:16:55;;;;;;;;;;;;;;;11.72;67.23;102004.81;1265656;23;538;-73
2023/01/31 02:17:45;;;;;;;;;;;;;;;11.71;67.93;102005.75;1265368;23;598;-73
2023/01/31 02:18:36;;;;;;;;;;;;;;;11.72;68.04;102011.03;1264851;23;518;-73
2023/01/31 02:19:26;;;;;;;;;;;;;;;11.72;67.90;102002.16;1264998;23;653;-73
2023/01/31 02:20:16;;;;;;;;;;;;;;;11.72;68.02;102000.34;1265514;23;606;-73
2023/01/31 02:21:07;;;;;;;;;;;;;;;11.72;67.09;101999.47;1265028;23;619;-73
2023/01/31 02:21:57;;;;;;;;;;;;;;;11.73;67.73;102001.22;1264579;23;613;-73
2023/01/31 02:22:48;;;;;;;;;;;;;;;11.73;67.22;102001.22;1264952;23;700;-73
2023/01/31 02:23:38;;;;;;;;;;;;;;;11.72;67.82;101999.47;1265327;23;614;-74
2023/01/31 02:24:28;;;;;;;;;;;;;;;11.68;67.73;101996.09;1265184;23;649;-73
2023/01/31 02:25:21;;;;;;;;;;;;;;;11.68;68.04;101995.22;1265353;23;621;-73
2023/01/31 02:26:11;;;;;;;;;;;;;;;11.68;68.10;102000.56;1265863;23;649;-73
2023/01/31 02:27:01;;;;;;;;;;;;;;;11.69;67.27;101999.63;1266016;23;618;-73
2023/01/31 02:27:52;;;;;;;;;;;;;;;11.67;67.26;101991.69;1265524;23;638;-73
2023/01/31 02:28:42;;;;;;;;;;;;;;;11.67;68.04;101997.03;1265010;23;622;-73
2023/01/31 02:29:33;;;;;;;;;;;;;;;11.67;67.78;102001.50;1265439;23;658;-73
2023/01/31 02:30:23;;;;;;;;;;;;;;;11.67;68.02;101998.84;1265856;23;610;-73
2023/01/31 02:31:14;;;;;;;;;;;;;;;11.68;67.19;101992.56;1265054;23;684;-73
2023/01/31 02:32:04;;;;;;;;;;;;;;;11.69;67.09;101997.81;1265785;23;669;-73
2023/01/31 02:32:55;;;;;;;;;;;;;;;11.69;67.43;101984.47;1265254;23;622;-73
2023/01/31 02:33:45;;;;;;;;;;;;;;;11.70;67.09;101982.66;1265492;23;645;-73
2023/01/31 02:34:35;;;;;;;;;;;;;;;11.69;67.59;101983.63;1265908;23;606;-73
2023/01/31 02:35:26;;;;;;;;;;;;;;;11.70;67.80;101980.00;1259841;23;657;-73
2023/01/31 02:36:16;;;;;;;;;;;;;;;11.67;67.95;101981.03;1261280;23;630;-73
2023/01/31 02:37:07;;;;;;;;;;;;;;;11.66;67.18;101975.75;1266120;23;660;-73
2023/01/31 02:37:57;;;;;;;;;;;;;;;11.68;67.50;101976.53;1265730;23;676;-72
2023/01/31 02:38:47;;;;;;;;;;;;;;;11.70;68.00;101975.53;1265161;23;654;-71
2023/01/31 02:39:38;;;;;;;;;;;;;;;11.66;67.25;101979.28;1265376;23;665;-72
2023/01/31 02:40:28;;;;;;;;;;;;;;;11.70;68.01;101980.88;1265944;23;638;-72
2023/01/31 02:41:19;;;;;;;;;;;;;;;11.70;67.09;101980.88;1259693;23;685;-72
2023/01/31 02:42:09;;;;;;;;;;;;;;;11.69;67.15;101975.59;1261351;23;590;-72
2023/01/31 02:43:00;;;;;;;;;;;;;;;11.69;67.13;101984.47;1265897;23;597;-72
2023/01/31 02:44:59;;;;;;;;;;;;;;;11.69;67.94;101979.13;1264916;23;649;-71
2023/01/31 02:45:52;;;;;;;;;;;;;;;11.70;67.14;101974.66;1265164;23;673;-71
2023/01/31 02:46:42;;;;;;;;;;;;;;;11.69;67.75;101968.47;1264944;23;630;-71
2023/01/31 02:47:33;;;;;;;;;;;;;;;11.69;68.00;101968.47;1265270;23;657;-71
2023/01/31 02:48:23;;;;;;;;;;;;;;;11.69;67.42;101967.59;1265772;23;1948;-72
2023/01/31 02:49:13;;;;;;;;;;;;;;;11.67;67.06;101970.34;1265053;23;654;-72
2023/01/31 02:50:04;;;;;;;;;;;;;;;11.68;67.08;101961.38;1265425;23;638;-72
2023/01/31 02:50:54;;;;;;;;;;;;;;;11.68;67.44;101960.53;1265918;23;685;-72
2023/01/31 02:52:14;;;;;;;;;;;;;;;11.67;67.35;101964.13;1265266;23;654;-72
2023/01/31 02:52:55;;;;;;;;;;;;;;;11.65;67.27;101964.22;1266807;23;688;-72
2023/01/31 02:53:46;;;;;;;;;;;;;;;11.69;67.28;101964.91;1265188;23;594;-72
2023/01/31 02:56:59;;;;;;;;;;;;;;;11.66;67.03;101967.75;1243199;23;595;-72
2023/01/31 02:57:49;;;;;;;;;;;;;;;11.66;67.13;101965.94;1242572;23;959;-72
2023/01/31 02:58:40;;;;;;;;;;;;;;;11.65;67.07;101968.69;1242461;23;626;-72
2023/01/31 02:59:31;;;;;;;;;;;;;;;11.66;67.21;101965.94;1242415;23;622;-72
2023/01/31 03:00:22;;;;;;;;;;;;;;;11.66;67.39;101963.28;1242391;23;598;-72
2023/01/31 03:01:12;;;;;;;;;;;;;;;11.66;67.19;101967.75;1242609;23;977;-72
2023/01/31 03:02:02;;;;;;;;;;;;;;;11.67;67.17;101969.47;1242373;23;619;-72
2023/01/31 03:02:55;;;;;;;;;;;;;;;11.65;67.55;101966.00;1242619;23;606;-72
2023/01/31 03:03:46;;;;;;;;;;;;;;;11.65;67.20;101972.22;1242535;23;634;-73
2023/01/31 03:04:37;;;;;;;;;;;;;;;11.67;67.61;101969.47;1242449;23;616;-73
2023/01/31 03:05:28;;;;;;;;;;;;;;;11.67;67.58;101969.47;1242578;23;646;-72
2023/01/31 03:06:28;;;;;;;;;;;;;;;11.66;67.80;101962.41;1242395;23;610;-72
2023/01/31 03:07:21;;;;;;;;;;;;;;;11.68;67.74;101963.19;1242443;23;657;-72
2023/01/31 03:08:15;;;;;;;;;;;;;;;11.67;67.30;101964.13;1237407;24;1886;-72
2023/01/31 03:09:05;;;;;;;;;;;;;;;11.68;67.50;101969.41;1237493;24;661;-72
2023/01/31 03:09:56;;;;;;;;;;;;;;;11.70;67.30;101969.31;1241634;23;607;-72
2023/01/31 03:10:46;;;;;;;;;;;;;;;11.70;67.65;101963.97;1242750;23;631;-71
2023/01/31 03:11:36;;;;;;;;;;;;;;;11.71;67.54;101965.72;1242415;23;634;-72
2023/01/31 03:12:29;;;;;;;;;;;;;;;11.70;67.96;101958.63;1242551;23;708;-73
2023/01/31 03:13:19;;;;;;;;;;;;;;;11.70;68.03;101959.50;1242602;23;657;-71
2023/01/31 03:14:10;;;;;;;;;;;;;;;11.70;67.38;101959.50;1242428;23;1140;-73
2023/01/31 03:15:00;;;;;;;;;;;;;;;11.69;67.25;101957.78;1242104;23;1152;-72
2023/01/31 03:18:09;;;;;;;;;;;;;;;11.71;67.78;101955.03;1243158;23;606;-71
2023/01/31 03:18:59;;;;;;;;;;;;;;;11.72;67.44;101956.75;1242462;23;638;-72
2023/01/31 03:19:50;;;;;;;;;;;;;;;11.67;67.42;101948.97;1242570;23;606;-73
2023/01/31 03:20:43;;;;;;;;;;;;;;;11.69;68.20;101957.78;1237303;24;1008;-72
2023/01/31 03:21:33;;;;;;;;;;;;;;;11.69;68.08;101956.91;1237485;24;674;-72
2023/01/31 03:22:23;;;;;;;;;;;;;;;11.69;68.27;101959.59;1242354;23;665;-73
2023/01/31 03:23:14;;;;;;;;;;;;;;;11.68;68.00;101955.19;1242506;23;606;-74
2023/01/31 03:24:04;;;;;;;;;;;;;;;11.70;67.80;101955.97;1243247;23;587;-72
2023/01/31 03:24:55;;;;;;;;;;;;;;;11.69;67.71;101946.22;1242271;23;642;-73
2023/01/31 03:25:45;;;;;;;;;;;;;;;11.69;67.20;101957.78;1237345;24;685;-72
2023/01/31 03:26:36;;;;;;;;;;;;;;;11.68;68.10;101944.50;1237343;24;642;-73
2023/01/31 03:27:26;;;;;;;;;;;;;;;11.70;67.84;101948.81;1242340;23;976;-73
2023/01/31 03:28:16;;;;;;;;;;;;;;;11.70;68.09;101948.81;1242360;23;1945;-73
2023/01/31 03:29:07;;;;;;;;;;;;;;;11.70;67.44;101943.47;1243196;23;626;-72
2023/01/31 03:29:57;;;;;;;;;;;;;;;11.73;67.59;101937.13;1242321;23;732;-72
2023/01/31 03:30:48;;;;;;;;;;;;;;;11.70;67.15;101937.28;1242512;23;705;-72
2023/01/31 03:31:38;;;;;;;;;;;;;;;11.71;67.54;101939.00;1242358;23;610;-73
2023/01/31 03:32:29;;;;;;;;;;;;;;;11.72;67.58;101940.75;1242467;23;686;-74
2023/01/31 03:33:19;;;;;;;;;;;;;;;11.71;67.67;101936.34;1243267;23;701;-73
2023/01/31 03:34:12;;;;;;;;;;;;;;;11.68;68.01;101929.34;1266686;23;614;-74
2023/01/31 03:35:03;;;;;;;;;;;;;;;11.67;67.32;101930.28;1264933;23;664;-74
2023/01/31 03:35:53;;;;;;;;;;;;;;;11.70;67.37;101926.59;1266689;23;652;-73
2023/01/31 03:36:44;;;;;;;;;;;;;;;11.69;67.43;101930.22;1265071;23;617;-73
2023/01/31 03:37:34;;;;;;;;;;;;;;;11.68;68.23;101924.00;1265285;23;649;-73
2023/01/31 03:38:24;;;;;;;;;;;;;;;11.68;68.24;101917.81;1264968;23;644;-74
2023/01/31 03:39:15;;;;;;;;;;;;;;;11.69;67.58;101914.19;1265025;23;819;-73
2023/01/31 03:40:05;;;;;;;;;;;;;;;11.71;67.44;101913.16;1264769;23;642;-73
2023/01/31 03:40:56;;;;;;;;;;;;;;;11.74;67.51;101918.34;1265026;23;633;-74
2023/01/31 03:41:46;;;;;;;;;;;;;;;11.71;68.10;101906.97;1266090;23;684;-74
2023/01/31 03:42:36;;;;;;;;;;;;;;;11.71;67.71;101910.50;1264370;23;642;-74
2023/01/31 03:43:27;;;;;;;;;;;;;;;11.72;67.48;101908.69;1265931;23;672;-74
2023/01/31 03:44:17;;;;;;;;;;;;;;;11.72;67.74;101909.56;1259231;23;653;-74
2023/01/31 03:45:08;;;;;;;;;;;;;;;11.75;67.33;101908.53;1261034;23;747;-74
2023/01/31 03:45:58;;;;;;;;;;;;;;;11.73;67.36;101907.75;1265767;23;685;-74
2023/01/31 03:46:49;;;;;;;;;;;;;;;11.73;67.43;101907.75;1265134;23;606;-73
2023/01/31 03:47:39;;;;;;;;;;;;;;;11.74;68.15;101917.50;1265151;23;799;-73
2023/01/31 03:48:30;;;;;;;;;;;;;;;11.73;67.87;101915.75;1264973;23;1889;-72
2023/01/31 03:49:21;;;;;;;;;;;;;;;11.72;67.45;101906.88;1267524;23;668;-71
2023/01/31 03:50:12;;;;;;;;;;;;;;;11.71;68.12;101910.50;1264748;23;542;-71
2023/01/31 03:51:02;;;;;;;;;;;;;;;11.71;67.35;101906.97;1265457;23;633;-72
2023/01/31 03:51:53;;;;;;;;;;;;;;;11.74;67.77;101917.50;1259219;23;625;-72
2023/01/31 03:52:43;;;;;;;;;;;;;;;11.76;67.82;101915.63;1259558;23;642;-72
2023/01/31 03:53:33;;;;;;;;;;;;;;;11.74;68.04;101917.50;1265865;23;618;-72
2023/01/31 03:54:24;;;;;;;;;;;;;;;11.72;68.00;101911.38;1265218;23;630;-72
2023/01/31 03:55:14;;;;;;;;;;;;;;;11.74;67.18;101917.50;1264809;23;665;-72
2023/01/31 03:56:05;;;;;;;;;;;;;;;11.73;67.08;101915.75;1265032;23;627;-72
2023/01/31 03:56:55;;;;;;;;;;;;;;;11.73;67.96;101911.28;1265111;23;774;-72
2023/01/31 03:57:46;;;;;;;;;;;;;;;11.71;67.09;101918.50;1264964;23;642;-72
2023/01/31 03:58:36;;;;;;;;;;;;;;;11.69;67.81;101909.72;1265218;23;611;-72
2023/01/31 03:59:27;;;;;;;;;;;;;;;11.70;67.78;101910.56;1264911;23;622;-71
2023/01/31 04:00:17;;;;;;;;;;;;;;;11.67;67.79;101900.91;1265169;23;642;-72
2023/01/31 04:01:08;;;;;;;;;;;;;;;11.67;67.84;101902.72;1265065;23;665;-72
2023/01/31 04:01:58;;;;;;;;;;;;;;;11.68;67.78;101904.44;1265484;23;705;-72
2023/01/31 04:02:49;;;;;;;;;;;;;;;11.65;67.82;101899.25;1265024;23;681;-72
2023/01/31 04:03:39;;;;;;;;;;;;;;;11.65;67.55;101900.13;1265954;23;602;-71
2023/01/31 04:04:31;;;;;;;;;;;;;;;11.66;68.02;101898.31;1265816;23;607;-71
2023/01/31 04:05:21;;;;;;;;;;;;;;;11.67;67.13;101902.72;1258415;23;828;-72
2023/01/31 04:06:12;;;;;;;;;;;;;;;11.67;67.58;101900.91;1261049;23;649;-72
2023/01/31 04:07:03;;;;;;;;;;;;;;;11.68;67.22;101896.44;1265763;23;626;-72
2023/01/31 04:07:54;;;;;;;;;;;;;;;11.67;67.48;101898.25;1265146;23;665;-72
2023/01/31 04:08:44;;;;;;;;;;;;;;;11.68;67.86;101901.78;1266604;23;645;-71
2023/01/31 04:09:36;;;;;;;;;;;;;;;11.66;67.77;101896.53;1265048;23;602;-71
2023/01/31 04:10:26;;;;;;;;;;;;;;;11.65;68.03;101897.47;1264697;23;658;-71
2023/01/31 04:11:17;;;;;;;;;;;;;;;11.64;67.61;101889.56;1264547;23;638;-72
2023/01/31 04:12:07;;;;;;;;;;;;;;;11.66;67.05;101893.84;1265629;23;642;-72
2023/01/31 04:12:58;;;;;;;;;;;;;;;11.66;67.28;101896.53;1264941;23;662;-71
2023/01/31 04:13:48;;;;;;;;;;;;;;;11.68;67.81;101893.78;1265315;23;657;-72
2023/01/31 04:14:39;;;;;;;;;;;;;;;11.67;67.78;101897.38;1264831;23;646;-72
2023/01/31 04:15:29;;;;;;;;;;;;;;;11.66;67.13;101893.84;1264935;23;622;-72
2023/01/31 04:16:20;;;;;;;;;;;;;;;11.65;67.54;101892.13;1264662;23;658;-72
2023/01/31 04:17:10;;;;;;;;;;;;;;;11.64;67.09;101900.25;1264830;23;622;-72
2023/01/31 04:18:00;;;;;;;;;;;;;;;11.64;67.14;101885.09;1264480;23;606;-72
2023/01/31 04:18:51;;;;;;;;;;;;;;;11.63;66.94;101888.69;1264684;23;638;-72
2023/01/31 04:19:41;;;;;;;;;;;;;;;11.64;67.42;101885.09;1265059;23;598;-72
2023/01/31 04:20:32;;;;;;;;;;;;;;;11.65;67.82;101883.25;1264468;23;723;-72
2023/01/31 04:21:22;;;;;;;;;;;;;;;11.63;67.54;101871.81;1265654;23;669;-72
2023/01/31 04:22:12;;;;;;;;;;;;;;;11.64;67.60;101873.53;1264485;23;820;-73
2023/01/31 04:23:03;;;;;;;;;;;;;;;11.62;67.04;101881.63;1265531;23;669;-73
2023/01/31 04:23:53;;;;;;;;;;;;;;;11.61;67.11;101879.03;1265280;23;629;-73
2023/01/31 04:24:44;;;;;;;;;;;;;;;11.63;67.33;101883.34;1264823;23;610;-73
2023/01/31 04:25:34;;;;;;;;;;;;;;;11.63;67.79;101885.16;1265065;23;623;-72
2023/01/31 04:26:25;;;;;;;;;;;;;;;11.64;67.87;101884.22;1265472;23;677;-72
2023/01/31 04:27:15;;;;;;;;;;;;;;;11.62;67.87;101881.63;1264764;23;665;-72
2023/01/31 04:28:05;;;;;;;;;;;;;;;11.62;67.04;101884.31;1265347;23;615;-72
2023/01/31 04:28:56;;;;;;;;;;;;;;;11.63;67.42;101885.16;1264743;23;676;-72
2023/01/31 04:29:46;;;;;;;;;;;;;;;11.63;67.13;101885.16;1266208;23;716;-72
2023/01/31 04:30:37;;;;;;;;;;;;;;;11.63;67.48;101880.69;1264673;23;661;-72
2023/01/31 04:31:27;;;;;;;;;;;;;;;11.62;67.89;101888.78;1264824;23;685;-73
2023/01/31 04:32:18;;;;;;;;;;;;;;;11.61;67.75;101887.03;1264539;23;669;-73
2023/01/31 04:33:08;;;;;;;;;;;;;;;11.59;66.97;101879.13;1264761;23;665;-72